Time;durP1;ratioP1;P1;durP2;ratioP2;P2;SDS_P1;SDS_P2;PMS_P1;PMS_P2;Temp;Humidity;BMP_temperature;BMP_pressure;BME280_temperature;BME280_humidity;BME280_pressure;Samples;Min_cycle;Max_cycle;Signal;HPM_P1;HPM_P2
2021/11/25 00:01:07;;;;;;;58.03;29.83;;;;;;;4.88;90.89;101542.06;5013602;28;20103;-72
2021/11/25 00:03:32;;;;;;;61.90;28.52;;;;;;;4.87;90.55;101539.53;5014840;28;20029;-72
2021/11/25 00:05:58;;;;;;;57.85;30.42;;;;;;;4.84;90.88;101532.63;5014504;28;20030;-72
2021/11/25 00:08:23;;;;;;;60.63;30.65;;;;;;;4.82;90.91;101533.63;5013614;28;20025;-72
2021/11/25 00:10:49;;;;;;;59.20;31.00;;;;;;;4.78;90.96;101525.06;5014414;28;20069;-73
2021/11/25 00:13:14;;;;;;;61.58;29.15;;;;;;;4.80;90.17;101525.81;5014863;28;20021;-73
2021/11/25 00:15:41;;;;;;;56.60;29.48;;;;;;;4.80;89.67;101527.59;5013631;28;20048;-73
2021/11/25 00:18:07;;;;;;;57.25;29.90;;;;;;;4.79;90.42;101529.38;5014320;28;20034;-73
2021/11/25 00:20:32;;;;;;;59.58;31.30;;;;;;;4.77;90.35;101526.81;5013370;28;20548;-73
2021/11/25 00:22:58;;;;;;;64.07;29.30;;;;;;;4.76;91.03;101521.63;5014246;28;20041;-73
2021/11/25 00:25:23;;;;;;;63.97;30.42;;;;;;;4.73;91.41;101520.03;5013635;28;20125;-73
2021/11/25 00:27:50;;;;;;;57.08;28.65;;;;;;;4.70;90.30;101512.28;5014050;28;20363;-73
2021/11/25 00:30:15;;;;;;;55.33;29.33;;;;;;;4.74;89.09;101511.16;5013552;28;20030;-73
2021/11/25 00:32:42;;;;;;;56.55;29.27;;;;;;;4.74;89.21;101513.81;5013179;28;20034;-73
2021/11/25 00:35:09;;;;;;;57.20;28.60;;;;;;;4.74;89.59;101513.81;5013692;28;20510;-73
2021/11/25 00:37:35;;;;;;;58.78;28.42;;;;;;;4.73;88.92;101509.50;5014868;28;20121;-73
2021/11/25 00:40:01;;;;;;;62.38;29.45;;;;;;;4.73;90.13;101506.84;5013992;28;20117;-73
2021/11/25 00:42:26;;;;;;;51.10;27.20;;;;;;;4.72;90.22;101505.16;5013138;28;20128;-73
2021/11/25 00:44:52;;;;;;;60.30;28.70;;;;;;;4.72;90.04;101504.31;5014231;28;20487;-73
2021/11/25 00:47:17;;;;;;;54.15;27.48;;;;;;;4.72;89.76;101506.94;5013092;28;20037;-73
2021/11/25 00:49:42;;;;;;;55.92;28.83;;;;;;;4.70;88.99;101506.16;5012985;28;20045;-73
2021/11/25 00:52:08;;;;;;;57.67;27.85;;;;;;;4.68;89.59;101500.97;5013911;28;20227;-73
2021/11/25 00:54:33;;;;;;;59.65;27.42;;;;;;;4.66;88.52;101497.56;5013890;28;20394;-73
2021/11/25 00:56:59;;;;;;;54.92;27.38;;;;;;;4.67;88.86;101499.28;5013322;28;20049;-73
2021/11/25 00:59:24;;;;;;;60.42;28.15;;;;;;;4.68;88.90;101492.22;5013703;28;20034;-74
2021/11/25 01:01:49;;;;;;;53.55;26.23;;;;;;;4.67;88.19;101493.16;5013632;28;20030;-76
2021/11/25 01:04:15;;;;;;;57.40;28.00;;;;;;;4.66;88.94;101500.22;5013003;28;20041;-73
2021/11/25 01:06:40;;;;;;;55.40;27.05;;;;;;;4.66;88.49;101496.69;5013845;28;20033;-73
2021/11/25 01:09:06;;;;;;;51.53;26.63;;;;;;;4.67;87.83;101495.78;5013386;28;20076;-73
2021/11/25 01:11:31;;;;;;;51.60;26.17;;;;;;;4.69;87.15;101493.94;5013956;28;20037;-73
2021/11/25 01:13:57;;;;;;;54.40;27.35;;;;;;;4.69;87.81;101480.75;5013208;28;20378;-73
2021/11/25 01:16:22;;;;;;;54.80;27.15;;;;;;;4.68;87.05;101476.41;5012582;28;20034;-73
2021/11/25 01:18:49;;;;;;;48.42;26.27;;;;;;;4.67;87.71;101480.84;5012224;28;20152;-73
2021/11/25 01:21:15;;;;;;;50.05;25.85;;;;;;;4.65;87.39;101481.84;5013062;28;20081;-73
2021/11/25 01:23:41;;;;;;;54.15;27.08;;;;;;;4.65;87.60;101481.84;4996163;28;20061;-72
2021/11/25 01:26:07;;;;;;;46.83;25.20;;;;;;;4.65;88.11;101487.13;5011774;28;20061;-73
2021/11/25 01:28:32;;;;;;;49.75;27.38;;;;;;;4.65;88.30;101487.13;5012272;28;20509;-73
2021/11/25 01:31:00;;;;;;;53.35;25.83;;;;;;;4.64;87.91;101496.78;5013283;28;20126;-74
2021/11/25 01:33:27;;;;;;;49.03;26.25;;;;;;;4.64;88.27;101501.22;5012460;28;20037;-74
2021/11/25 01:35:54;;;;;;;56.33;26.95;;;;;;;4.63;89.47;101489.84;5013583;28;20025;-73
2021/11/25 01:38:20;;;;;;;51.65;27.02;;;;;;;4.64;88.77;101488.88;5013118;28;20037;-73
2021/11/25 01:43:22;;;;;;;51.97;27.63;;;;;;;4.64;89.68;101491.53;5030844;28;20099;-74
2021/11/25 01:45:53;;;;;;;58.30;28.23;;;;;;;4.65;89.49;101484.47;5033033;28;20037;-73
2021/11/25 01:48:19;;;;;;;59.95;29.33;;;;;;;4.65;90.94;101485.31;5032991;28;20032;-73
2021/11/25 01:50:46;;;;;;;62.33;31.45;;;;;;;4.65;92.09;101484.47;5033335;28;20067;-73
2021/11/25 01:53:13;;;;;;;61.60;30.13;;;;;;;4.63;92.56;101478.44;5032799;28;20022;-73
2021/11/25 01:55:40;;;;;;;64.10;31.30;;;;;;;4.62;92.05;101474.13;5033147;28;20041;-73
2021/11/25 01:58:05;;;;;;;63.83;30.00;;;;;;;4.63;92.95;101475.78;5032669;28;20038;-73
2021/11/25 02:00:42;;;;;;;62.03;30.25;;;;;;;4.64;93.17;101464.31;5033144;28;20021;-73
2021/11/25 02:03:08;;;;;;;71.30;31.73;;;;;;;4.61;93.94;101452.16;5032720;28;20026;-74
2021/11/25 02:05:35;;;;;;;65.90;30.80;;;;;;;4.62;94.47;101461.78;5031950;28;20534;-73
2021/11/25 02:08:02;;;;;;;74.53;32.53;;;;;;;4.61;94.72;101453.94;5032278;28;20079;-74
2021/11/25 02:10:28;;;;;;;69.05;32.08;;;;;;;4.61;94.12;101449.50;5033056;28;20033;-73
2021/11/25 02:12:53;;;;;;;72.30;31.42;;;;;;;4.59;94.68;101446.13;5032733;28;20479;-73
2021/11/25 02:15:19;;;;;;;76.28;33.45;;;;;;;4.55;94.97;101449.88;5014515;28;20034;-73
2021/11/25 02:17:45;;;;;;;79.25;33.15;;;;;;;4.53;95.79;101454.38;5032600;28;20458;-73
2021/11/25 02:20:12;;;;;;;82.57;34.28;;;;;;;4.53;96.23;101443.84;5032032;28;20028;-73
2021/11/25 02:22:39;;;;;;;84.45;34.15;;;;;;;4.50;96.63;101436.94;5032859;28;20104;-73
2021/11/25 02:25:06;;;;;;;80.30;34.10;;;;;;;4.51;96.69;101432.50;5031979;28;20087;-73
2021/11/25 02:27:31;;;;;;;81.03;35.17;;;;;;;4.49;96.74;101445.78;5032875;28;20034;-73
2021/11/25 02:29:57;;;;;;;83.32;36.13;;;;;;;4.47;97.41;101438.91;5032488;28;20030;-73
2021/11/25 02:32:29;;;;;;;80.75;34.63;;;;;;;4.47;97.73;101442.38;5032331;28;20373;-73
2021/11/25 02:34:55;;;;;;;79.65;36.13;;;;;;;4.47;97.91;101421.31;5032730;28;20029;-73
2021/11/25 02:37:20;;;;;;;77.55;35.10;;;;;;;4.46;98.08;101427.50;5032269;28;20022;-73
2021/11/25 02:39:47;;;;;;;89.97;36.15;;;;;;;4.45;97.85;101428.47;5032321;28;20482;-73
2021/11/25 02:42:12;;;;;;;93.53;38.13;;;;;;;4.45;98.19;101430.22;5014282;28;20046;-73
2021/11/25 02:44:38;;;;;;;94.32;37.65;;;;;;;4.45;98.94;101422.31;5032710;28;20052;-73
2021/11/25 02:47:03;;;;;;;81.10;35.53;;;;;;;4.50;98.26;101429.03;5031879;28;20112;-74
2021/11/25 02:49:29;;;;;;;82.30;36.92;;;;;;;4.51;97.75;101421.97;5032576;28;20034;-72
2021/11/25 02:51:54;;;;;;;87.07;37.25;;;;;;;4.51;98.05;101420.19;5032546;28;20029;-73
2021/11/25 02:54:19;;;;;;;95.20;39.35;;;;;;;4.49;98.88;101416.78;5032148;28;20095;-72
2021/11/25 02:56:45;;;;;;;92.28;37.88;;;;;;;4.48;98.88;101419.50;5032238;28;20032;-73
2021/11/25 02:59:10;;;;;;;93.97;38.55;;;;;;;4.47;98.48;101418.66;5031989;28;20477;-73
2021/11/25 03:01:37;;;;;;;93.38;36.70;;;;;;;4.43;98.78;101406.59;5032834;28;20029;-72
2021/11/25 03:04:04;;;;;;;114.10;40.22;;;;;;;4.40;99.91;101397.09;5032421;28;20370;-72
2021/11/25 03:06:29;;;;;;;119.50;42.47;;;;;;;4.36;100.00;101392.91;5031902;28;20036;-72
2021/11/25 03:08:56;;;;;;;114.45;40.47;;;;;;;4.32;100.00;101388.75;5031047;28;20034;-72
2021/11/25 03:11:24;;;;;;;104.50;39.55;;;;;;;4.29;100.00;101394.19;5031919;28;20061;-72
2021/11/25 03:13:54;;;;;;;114.45;40.83;;;;;;;4.23;100.00;101387.47;5032232;28;20036;-72
2021/11/25 03:16:20;;;;;;;117.18;42.13;;;;;;;4.23;100.00;101391.91;5031824;28;20155;-72
2021/11/25 03:18:47;;;;;;;125.60;45.55;;;;;;;4.23;100.00;101394.53;5031990;28;20061;-73
2021/11/25 03:21:17;;;;;;;126.53;43.15;;;;;;;4.22;100.00;101388.44;5031828;28;20037;-72
2021/11/25 03:23:44;;;;;;;139.07;46.90;;;;;;;4.22;100.00;101392.81;5032197;28;20026;-72
2021/11/25 03:26:10;;;;;;;128.07;44.72;;;;;;;4.21;100.00;101380.56;5031827;28;20030;-73
2021/11/25 03:28:40;;;;;;;145.93;45.97;;;;;;;4.20;100.00;101381.53;5033995;28;20030;-72
2021/11/25 03:31:06;;;;;;;128.50;44.28;;;;;;;4.15;100.00;101384.41;5018227;28;20450;-72
2021/11/25 03:33:33;;;;;;;140.45;46.53;;;;;;;4.13;100.00;101375.72;5035182;28;20025;-72
2021/11/25 03:36:01;;;;;;;138.48;44.35;;;;;;;4.10;100.00;101375.06;5035923;28;20037;-72
2021/11/25 03:38:26;;;;;;;145.43;46.72;;;;;;;4.07;100.00;101373.44;5017210;28;20369;-72
2021/11/25 03:40:52;;;;;;;138.32;46.40;;;;;;;4.06;100.00;101374.38;5035783;28;20029;-72
2021/11/25 03:43:18;;;;;;;155.10;46.75;;;;;;;4.05;100.00;101378.78;5035319;28;20069;-72
2021/11/25 03:45:44;;;;;;;142.25;45.13;;;;;;;4.05;100.00;101381.44;5035446;28;20495;-72
2021/11/25 03:48:10;;;;;;;125.78;42.42;;;;;;;4.07;100.00;101376.06;5034501;28;20030;-72
2021/11/25 03:50:35;;;;;;;151.65;47.50;;;;;;;4.07;100.00;101373.44;5035253;28;20026;-72
2021/11/25 03:53:01;;;;;;;144.13;45.13;;;;;;;4.06;100.00;101377.88;5035564;28;20454;-72
2021/11/25 03:55:27;;;;;;;141.88;45.55;;;;;;;4.08;100.00;101377.78;5017325;28;20091;-73
2021/11/25 03:57:53;;;;;;;153.40;47.28;;;;;;;4.06;100.00;101374.38;5035492;28;20026;-72
2021/11/25 04:00:20;;;;;;;139.60;45.45;;;;;;;4.05;100.00;101370.06;5034655;28;20513;-72
2021/11/25 04:02:47;;;;;;;135.18;44.40;;;;;;;4.05;100.00;101370.06;5035468;28;20040;-72
2021/11/25 04:05:13;;;;;;;162.60;47.72;;;;;;;4.06;100.00;101364.69;5035017;28;20025;-76
2021/11/25 04:07:39;;;;;;;165.43;49.05;;;;;;;4.07;100.00;101357.63;5035494;28;20036;-72
2021/11/25 04:10:07;;;;;;;148.98;49.08;;;;;;;4.05;100.00;101356.88;5034938;28;20377;-72
2021/11/25 04:12:33;;;;;;;150.35;46.92;;;;;;;4.04;100.00;101357.81;5034283;28;20060;-72
2021/11/25 04:14:58;;;;;;;141.80;45.60;;;;;;;3.97;100.00;101346.78;5035026;28;20064;-72
2021/11/25 04:17:24;;;;;;;140.40;46.13;;;;;;;3.94;100.00;101353.97;5016960;28;20025;-72
2021/11/25 04:19:52;;;;;;;134.18;45.60;;;;;;;3.85;100.00;101345.66;5034758;28;20029;-72
2021/11/25 04:22:21;;;;;;;142.50;44.70;;;;;;;3.77;100.00;101354.91;5034617;28;20029;-72
2021/11/25 04:24:51;;;;;;;148.02;45.92;;;;;;;3.70;100.00;101362.25;5035152;28;20029;-72
2021/11/25 04:27:17;;;;;;;166.15;48.10;;;;;;;3.70;100.00;101365.75;5034112;28;20029;-72
2021/11/25 04:29:46;;;;;;;168.90;48.45;;;;;;;3.74;100.00;101369.06;5034805;28;20022;-72
2021/11/25 04:37:41;;;;;;;169.65;48.35;;;;;;;3.91;100.00;101348.88;5034939;28;20472;-72
2021/11/25 04:40:07;;;;;;;161.57;49.90;;;;;;;3.94;100.00;101351.34;5034339;28;20029;-72
2021/11/25 04:42:33;;;;;;;161.45;47.22;;;;;;;3.95;100.00;101346.00;5034395;28;20056;-71
2021/11/25 04:44:58;;;;;;;168.95;47.28;;;;;;;3.98;100.00;101345.81;5034694;28;20022;-72
2021/11/25 04:47:24;;;;;;;168.57;49.67;;;;;;;3.99;100.00;101349.31;5033960;28;20084;-72
2021/11/25 04:49:49;;;;;;;173.48;48.80;;;;;;;4.00;100.00;101351.00;5034422;28;20159;-73
2021/11/25 04:52:14;;;;;;;164.48;48.28;;;;;;;4.00;100.00;101351.00;5033317;28;20080;-72
2021/11/25 04:54:40;;;;;;;162.95;48.20;;;;;;;4.02;100.00;101350.00;5033936;28;20087;-72
2021/11/25 04:57:06;;;;;;;168.02;47.70;;;;;;;4.04;100.00;101348.13;5034425;28;20076;-73
2021/11/25 04:59:31;;;;;;;182.93;48.97;;;;;;;4.04;100.00;101339.38;5033799;28;20025;-72
2021/11/25 05:01:57;;;;;;;176.45;48.00;;;;;;;4.03;100.00;101330.63;5033108;28;20484;-72
2021/11/25 05:04:22;;;;;;;174.38;50.63;;;;;;;4.02;100.00;101321.03;5033891;28;20036;-72
2021/11/25 05:06:48;;;;;;;167.38;48.25;;;;;;;4.05;100.00;101320.84;5034493;28;20040;-72
2021/11/25 05:09:13;;;;;;;168.65;49.75;;;;;;;4.05;100.00;101323.50;5034242;28;20045;-72
2021/11/25 05:11:39;;;;;;;167.82;46.65;;;;;;;4.06;100.00;101313.78;5033656;28;20028;-73
2021/11/25 05:14:04;;;;;;;175.98;51.20;;;;;;;4.06;100.00;101316.44;5034098;28;20029;-73
2021/11/25 05:16:30;;;;;;;173.45;50.42;;;;;;;4.03;100.00;101320.09;5033728;28;20033;-73
2021/11/25 05:18:55;;;;;;;147.88;45.33;;;;;;;3.99;100.00;101313.31;5033837;28;20453;-72
2021/11/25 05:21:20;;;;;;;155.50;46.05;;;;;;;3.88;100.00;101311.28;5033521;28;20076;-72
2021/11/25 05:23:46;;;;;;;172.60;48.65;;;;;;;3.79;100.00;101319.69;5033463;28;20033;-72
2021/11/25 05:26:11;;;;;;;174.63;48.15;;;;;;;3.71;100.00;101330.59;5033991;28;20461;-72
2021/11/25 05:28:37;;;;;;;158.95;46.47;;;;;;;3.66;100.00;101329.16;5033228;28;20108;-72
2021/11/25 05:31:02;;;;;;;178.00;48.28;;;;;;;3.63;100.00;101332.81;5033532;28;20531;-72
2021/11/25 05:33:27;;;;;;;177.35;47.90;;;;;;;3.65;100.00;101332.72;5015675;28;20057;-72
2021/11/25 05:35:53;;;;;;;182.93;49.85;;;;;;;3.66;100.00;101331.81;5033680;28;20376;-72
2021/11/25 05:38:18;;;;;;;199.52;50.65;;;;;;;3.70;100.00;101334.19;5015851;28;20025;-72
2021/11/25 05:40:45;;;;;;;214.88;51.08;;;;;;;3.75;100.00;101331.28;5033119;28;20041;-72
2021/11/25 05:43:11;;;;;;;223.30;54.60;;;;;;;3.81;100.00;101322.22;5033088;28;20167;-73
2021/11/25 05:45:36;;;;;;;199.77;51.50;;;;;;;3.84;100.00;101333.44;5033064;28;20060;-72
2021/11/25 05:48:02;;;;;;;206.45;54.13;;;;;;;3.87;100.00;101327.16;5033458;28;20056;-72
2021/11/25 05:50:28;;;;;;;198.82;52.33;;;;;;;3.88;100.00;101332.34;5031960;28;20044;-73
2021/11/25 05:52:56;;;;;;;205.10;51.03;;;;;;;3.87;100.00;101335.06;5033630;28;20095;-72
2021/11/25 05:55:24;;;;;;;202.32;50.58;;;;;;;3.87;100.00;101329.78;5033377;28;20025;-72
2021/11/25 05:57:49;;;;;;;205.07;53.53;;;;;;;3.86;100.00;101331.53;5032765;28;20040;-72
2021/11/25 06:00:16;;;;;;;194.00;49.35;;;;;;;3.88;100.00;101332.34;5033354;28;20021;-72
2021/11/25 06:02:45;;;;;;;211.93;53.35;;;;;;;3.88;100.00;101320.94;5032820;28;20044;-72
2021/11/25 06:05:12;;;;;;;206.68;53.78;;;;;;;3.91;100.00;101330.44;5032832;28;20533;-75
2021/11/25 06:07:42;;;;;;;222.13;54.60;;;;;;;3.92;100.00;101319.84;5032724;28;20025;-72
2021/11/25 06:10:08;;;;;;;225.20;53.42;;;;;;;3.95;100.00;101324.94;5033065;28;20037;-73
2021/11/25 06:12:33;;;;;;;215.73;53.28;;;;;;;3.97;100.00;101311.69;5032669;28;20033;-72
2021/11/25 06:14:59;;;;;;;214.75;53.72;;;;;;;3.98;100.00;101321.28;5031904;28;20029;-72
2021/11/25 06:17:24;;;;;;;223.75;53.63;;;;;;;3.98;100.00;101326.56;5031870;28;20068;-73
2021/11/25 06:19:53;;;;;;;206.63;54.45;;;;;;;3.99;100.00;101320.38;5032522;28;20446;-72
2021/11/25 06:22:19;;;;;;;200.10;53.88;;;;;;;4.00;100.00;101317.66;5031416;28;20036;-71
2021/11/25 06:24:45;;;;;;;204.95;52.75;;;;;;;4.01;100.00;101310.59;5032055;28;20112;-71
2021/11/25 06:27:10;;;;;;;203.60;50.88;;;;;;;4.05;100.00;101312.13;5031530;28;20155;-72
2021/11/25 06:29:36;;;;;;;206.32;51.05;;;;;;;4.05;100.00;101314.75;5032449;28;20052;-73
2021/11/25 06:32:01;;;;;;;201.05;49.70;;;;;;;4.09;100.00;101313.66;5032840;28;20080;-72
2021/11/25 06:34:27;;;;;;;205.43;51.13;;;;;;;4.13;100.00;101314.31;5032716;28;20048;-72
2021/11/25 06:36:52;;;;;;;215.60;51.60;;;;;;;4.18;100.00;101301.72;5032351;28;20420;-71
2021/11/25 06:39:17;;;;;;;196.48;50.08;;;;;;;4.21;100.00;101299.78;5032319;28;20033;-72
2021/11/25 06:41:43;;;;;;;183.25;49.55;;;;;;;4.23;100.00;101304.97;5031994;28;20049;-72
2021/11/25 06:44:08;;;;;;;187.25;50.42;;;;;;;4.24;100.00;101309.31;5032972;28;20032;-74
2021/11/25 06:46:33;;;;;;;201.80;50.85;;;;;;;4.25;100.00;101287.28;5031956;28;20117;-74
2021/11/25 06:48:59;;;;;;;203.60;49.72;;;;;;;4.27;100.00;101293.34;5015392;28;20081;-73
2021/11/25 06:51:25;;;;;;;190.10;48.95;;;;;;;4.28;100.00;101289.75;5032602;28;20030;-73
2021/11/25 06:53:50;;;;;;;187.75;47.78;;;;;;;4.29;100.00;101291.44;5014388;28;20026;-73
2021/11/25 06:56:16;;;;;;;190.13;49.47;;;;;;;4.33;100.00;101294.75;5032576;28;20513;-72
2021/11/25 06:58:41;;;;;;;191.25;47.30;;;;;;;4.34;100.00;101289.38;5031783;28;20084;-72
2021/11/25 07:01:08;;;;;;;193.23;48.58;;;;;;;4.36;100.00;101294.56;5032581;28;20026;-72
2021/11/25 07:03:34;;;;;;;186.77;47.50;;;;;;;4.40;100.00;101296.97;5035987;28;20025;-72
2021/11/25 07:06:01;;;;;;;186.55;47.95;;;;;;;4.41;100.00;101293.38;5036390;28;20037;-72
2021/11/25 07:08:27;;;;;;;194.55;47.70;;;;;;;4.44;100.00;101289.72;5036395;28;20027;-71
2021/11/25 07:10:52;;;;;;;179.95;44.45;;;;;;;4.47;100.00;101284.28;5035996;28;20040;-72
2021/11/25 07:13:18;;;;;;;183.85;43.60;;;;;;;4.49;100.00;101281.53;5036117;28;20417;-72
2021/11/25 07:15:43;;;;;;;181.77;43.95;;;;;;;4.52;100.00;101284.88;5035805;28;20465;-72
2021/11/25 07:18:09;;;;;;;172.38;41.28;;;;;;;4.54;100.00;101290.06;5036058;28;20029;-72
2021/11/25 07:20:34;;;;;;;157.80;39.33;;;;;;;4.59;100.00;101293.25;5036220;28;20068;-72
2021/11/25 07:22:59;;;;;;;158.43;39.22;;;;;;;4.63;100.00;101294.78;5035545;28;20171;-72
2021/11/25 07:25:25;;;;;;;151.60;37.05;;;;;;;4.67;100.00;101295.44;5018547;28;20465;-73
2021/11/25 07:27:51;;;;;;;141.77;36.63;;;;;;;4.68;100.00;101300.63;5035314;28;20098;-72
2021/11/25 07:30:18;;;;;;;140.82;35.72;;;;;;;4.71;100.00;101295.16;5035894;28;20033;-71
2021/11/25 07:32:44;;;;;;;142.73;37.15;;;;;;;4.75;100.00;101303.75;5035222;28;20492;-73
2021/11/25 07:35:12;;;;;;;142.00;36.60;;;;;;;4.80;100.00;101303.50;5035744;28;20025;-72
2021/11/25 07:37:38;;;;;;;112.13;29.20;;;;;;;4.90;100.00;101309.91;5035936;28;20071;-72
2021/11/25 07:40:05;;;;;;;97.82;27.23;;;;;;;5.04;100.00;101307.28;5035681;28;20037;-71
2021/11/25 07:42:31;;;;;;;59.95;20.67;;;;;;;5.14;100.00;101306.75;5035745;28;20539;-73
2021/11/25 07:44:56;;;;;;;56.55;19.95;;;;;;;5.21;100.00;101311.56;5035447;28;20025;-73
2021/11/25 07:47:30;;;;;;;53.17;20.13;;;;;;;5.27;100.00;101297.16;5035620;28;20033;-73
2021/11/25 07:49:56;;;;;;;40.05;16.55;;;;;;;5.35;100.00;101307.25;5035307;28;20100;-72
2021/11/25 07:52:21;;;;;;;38.67;15.63;;;;;;;5.41;100.00;101298.94;5035406;28;20442;-72
2021/11/25 07:54:47;;;;;;;35.03;14.60;;;;;;;5.45;100.00;101300.47;5034893;28;20106;-72
2021/11/25 07:57:12;;;;;;;31.38;13.68;;;;;;;5.47;100.00;101294.13;5035605;28;20036;-72
2021/11/25 07:59:37;;;;;;;31.75;13.07;;;;;;;5.50;100.00;101308.94;5035631;28;20029;-73
2021/11/25 08:02:03;;;;;;;26.27;11.35;;;;;;;5.52;100.00;101303.56;5034710;28;20259;-72
2021/11/25 08:04:28;;;;;;;23.42;10.80;;;;;;;5.53;100.00;101310.53;5030263;28;20033;-72
2021/11/25 08:06:54;;;;;;;19.75;10.32;;;;;;;5.54;100.00;101310.44;5033541;28;20523;-72
2021/11/25 08:09:19;;;;;;;27.52;10.73;;;;;;;5.57;100.00;101310.25;5034315;28;20446;-72
2021/11/25 08:11:45;;;;;;;21.77;10.63;;;;;;;5.59;100.00;101318.91;5034019;28;20048;-72
2021/11/25 08:14:10;;;;;;;24.02;9.07;;;;;;;5.63;100.00;101330.16;5033900;28;20033;-71
2021/11/25 08:16:36;;;;;;;19.75;8.23;;;;;;;5.64;100.00;101330.06;5034517;28;20058;-72
2021/11/25 08:19:01;;;;;;;17.73;6.80;;;;;;;5.66;100.00;101335.25;5033957;28;20037;-71
2021/11/25 08:21:27;;;;;;;19.08;5.60;;;;;;;5.68;100.00;101343.06;5034261;28;20373;-71
2021/11/25 08:23:52;;;;;;;21.17;3.70;;;;;;;5.66;100.00;101329.97;5034248;28;20034;-72
2021/11/25 08:26:17;;;;;;;18.55;2.72;;;;;;;5.64;100.00;101334.47;5034066;28;20081;-72
2021/11/25 08:28:43;;;;;;;21.23;2.28;;;;;;;5.64;100.00;101330.06;5034081;28;20025;-71
2021/11/25 08:31:09;;;;;;;23.08;3.00;;;;;;;5.64;100.00;101332.69;5033843;28;20036;-71
2021/11/25 08:33:35;;;;;;;18.55;2.17;;;;;;;5.66;100.00;101327.31;5034081;28;20281;-71
2021/11/25 08:36:01;;;;;;;20.90;2.83;;;;;;;5.65;100.00;101321.16;5016010;28;20079;-71
2021/11/25 08:38:32;;;;;;;20.75;2.60;;;;;;;5.65;100.00;101320.34;5033562;28;20037;-72
2021/11/25 08:40:57;;;;;;;22.88;2.40;;;;;;;5.65;100.00;101323.81;5033208;28;20096;-71
2021/11/25 08:43:23;;;;;;;13.02;2.00;;;;;;;5.68;100.00;101329.88;5033932;28;20042;-72
2021/11/25 08:45:49;;;;;;;11.82;2.00;;;;;;;5.71;100.00;101319.13;5033601;28;20033;-73
2021/11/25 08:48:15;;;;;;;18.77;1.90;;;;;;;5.76;100.00;101317.88;5034161;28;20033;-72
2021/11/25 08:50:41;;;;;;;23.67;3.13;;;;;;;5.80;100.00;101316.72;5033968;28;20388;-73
2021/11/25 08:53:07;;;;;;;22.67;2.75;;;;;;;5.86;100.00;101310.22;5033546;28;20491;-72
2021/11/25 08:55:34;;;;;;;21.02;2.83;;;;;;;5.90;100.00;101314.38;5033805;28;20413;-73
2021/11/25 08:58:04;;;;;;;19.80;2.00;;;;;;;5.93;100.00;101322.09;5032999;28;20450;-71
2021/11/25 09:00:33;;;;;;;19.88;2.75;;;;;;;5.96;100.00;101316.63;5033400;28;20056;-72
2021/11/25 09:02:58;;;;;;;24.92;2.90;;;;;;;6.00;100.00;101322.56;5033152;28;20083;-71
2021/11/25 09:05:24;;;;;;;20.92;2.50;;;;;;;6.03;100.00;101326.81;5015697;28;20025;-72
2021/11/25 09:07:49;;;;;;;16.25;2.20;;;;;;;6.05;100.00;101330.22;5033426;28;20087;-72
2021/11/25 09:10:15;;;;;;;15.55;2.60;;;;;;;6.07;100.00;101341.53;5033640;28;20035;-72
2021/11/25 09:12:40;;;;;;;14.18;2.20;;;;;;;6.06;100.00;101330.13;5033253;28;20033;-72
2021/11/25 09:15:06;;;;;;;14.27;2.70;;;;;;;6.06;100.00;101339.84;5032818;28;20454;-71
2021/11/25 09:17:31;;;;;;;23.00;2.60;;;;;;;6.02;100.00;101336.56;5015307;28;20030;-71
2021/11/25 09:19:58;;;;;;;14.52;2.00;;;;;;;5.92;100.00;101341.53;5032685;28;20033;-71
2021/11/25 09:22:23;;;;;;;19.73;2.17;;;;;;;5.81;100.00;101338.72;5033104;28;20508;-72
2021/11/25 09:24:49;;;;;;;26.02;2.50;;;;;;;5.78;100.00;101352.97;5015051;28;20061;-71
2021/11/25 09:27:14;;;;;;;13.70;1.75;;;;;;;5.79;100.00;101343.22;5032473;28;20033;-73
2021/11/25 09:29:40;;;;;;;12.98;1.98;;;;;;;5.78;100.00;101344.19;5032380;28;20523;-72
2021/11/25 09:32:06;;;;;;;11.07;2.05;;;;;;;5.74;100.00;101354.09;5032186;28;20017;-72
2021/11/25 09:34:31;;;;;;;13.77;1.60;;;;;;;5.72;100.00;101345.41;5032918;28;20033;-72
2021/11/25 09:36:57;;;;;;;14.38;1.88;;;;;;;5.73;99.62;101349.78;5032496;28;20033;-71
2021/11/25 09:39:25;;;;;;;11.30;1.38;;;;;;;5.70;96.66;101342.00;5032828;28;20036;-72
2021/11/25 09:41:54;;;;;;;14.73;1.60;;;;;;;5.69;96.36;101340.34;5032833;28;20025;-72
2021/11/25 09:44:21;;;;;;;9.23;1.85;;;;;;;5.68;96.17;101338.63;5033063;28;20048;-71
2021/11/25 09:46:53;;;;;;;10.40;2.03;;;;;;;5.74;96.58;101342.69;5032846;28;20103;-73
2021/11/25 09:49:21;;;;;;;20.23;2.40;;;;;;;5.83;96.47;101339.47;5032938;28;20026;-74
2021/11/25 09:51:46;;;;;;;12.63;2.22;;;;;;;5.98;94.82;101349.09;5032599;28;20025;-73
2021/11/25 09:54:12;;;;;;;22.80;3.25;;;;;;;6.16;95.81;101341.78;5032638;28;20048;-75
2021/11/25 09:56:37;;;;;;;12.50;2.72;;;;;;;6.43;92.64;101340.94;5014815;28;20037;-72
2021/11/25 09:59:03;;;;;;;11.63;1.60;;;;;;;6.68;91.89;101334.91;5013869;28;20030;-72
2021/11/25 10:01:28;;;;;;;12.88;1.98;;;;;;;6.90;90.61;101336.13;5032099;28;20029;-71
2021/11/25 10:03:54;;;;;;;11.13;1.65;;;;;;;7.05;90.15;101336.91;5014476;28;20044;-72
2021/11/25 10:06:23;;;;;;;8.70;1.98;;;;;;;7.25;89.02;101346.09;5032584;28;20033;-72
2021/11/25 10:08:49;;;;;;;17.77;2.15;;;;;;;7.51;87.73;101344.31;5014798;28;20075;-72
2021/11/25 10:11:19;;;;;;;9.23;1.77;;;;;;;7.78;86.51;101351.28;5031897;28;20037;-72
2021/11/25 10:13:47;;;;;;;11.32;1.92;;;;;;;7.95;84.57;101350.91;5014627;28;20033;-73
2021/11/25 10:16:17;;;;;;;19.27;2.28;;;;;;;7.99;82.11;101351.56;5031579;28;20017;-74
2021/11/25 10:18:44;;;;;;;10.80;1.50;;;;;;;8.02;79.09;101351.34;5031703;28;20030;-75
2021/11/25 10:21:27;;;;;;;14.95;1.98;;;;;;;8.00;80.57;101357.69;5031364;28;20036;-72
2021/11/25 10:23:56;;;;;;;9.48;1.30;;;;;;;8.00;80.01;101353.25;5029371;28;20025;-73
2021/11/25 10:26:25;;;;;;;14.65;2.03;;;;;;;7.99;80.53;101361.31;5032003;28;20032;-75
2021/11/25 10:29:00;;;;;;;10.50;1.70;;;;;;;7.90;79.37;101363.66;5014697;28;20369;-75
2021/11/25 10:31:31;;;;;;;9.57;2.15;;;;;;;7.73;78.97;101370.16;5032134;28;20026;-74
2021/11/25 10:34:09;;;;;;;18.33;1.90;;;;;;;7.62;80.73;101378.00;5031579;28;20108;-73
2021/11/25 10:41:54;;;;;;;9.00;1.60;;;;;;;7.24;82.96;101369.09;5032287;28;20030;-73
2021/11/25 10:44:26;;;;;;;12.90;2.13;;;;;;;7.21;82.11;101374.59;5031778;28;20037;-74
2021/11/25 10:46:55;;;;;;;9.82;2.15;;;;;;;7.22;81.89;101370.97;5032326;28;20030;-73
2021/11/25 10:49:33;;;;;;;10.98;1.88;;;;;;;7.22;78.10;101370.97;5031869;28;20029;-74
2021/11/25 10:51:58;;;;;;;14.95;2.25;;;;;;;7.24;80.62;101377.03;5031558;28;20064;-75
2021/11/25 10:54:24;;;;;;;9.35;1.58;;;;;;;7.21;79.96;101369.31;5032062;28;20068;-73
2021/11/25 10:56:55;;;;;;;13.73;1.60;;;;;;;7.17;78.08;101364.31;5031970;28;20416;-73
2021/11/25 10:59:37;;;;;;;10.35;1.58;;;;;;;7.18;77.57;101368.66;5031501;28;20052;-73
2021/11/25 11:02:16;;;;;;;14.93;1.65;;;;;;;7.14;76.62;101373.31;5031421;28;20017;-77
2021/11/25 11:04:45;;;;;;;9.43;1.35;;;;;;;7.12;77.37;101374.34;5031270;28;20045;-76
2021/11/25 11:07:43;;;;;;;11.02;1.88;;;;;;;7.05;78.25;101369.47;5031406;28;20112;-75
2021/11/25 11:10:20;;;;;;;9.23;1.77;;;;;;;7.06;80.65;101372.97;5019482;28;20049;-75
2021/11/25 11:20:48;;;;;;;12.77;2.10;;;;;;;7.35;76.52;101372.81;5031656;28;20137;-75
2021/11/25 11:23:20;;;;;;;17.05;2.10;;;;;;;7.31;78.59;101364.22;5031329;28;20112;-75
2021/11/25 11:25:47;;;;;;;19.83;2.10;;;;;;;7.30;78.62;101361.66;5031766;28;20468;-74
2021/11/25 11:28:13;;;;;;;17.02;2.05;;;;;;;7.31;78.40;101360.72;5025064;28;20065;-76
2021/11/25 11:30:40;;;;;;;9.52;1.80;;;;;;;7.38;78.87;101360.19;5009365;28;20417;-75